SFR191 FAGG-FACT
Flight info
| Callsign | SFR191 |
|---|---|
| Flight time | 0h 42m |
| Altitude | 28000 |
| Route | DCT GRV DCT ETBUL UQ49 ESRUK UQ51 GETEN GETEN1B |
| Aircraft | B738/M-SDE2E3FGHIRWXY/LB1 |
Departure
| Time | 2026-04-21 15:37 |
|---|---|
| Airport | George Airport (FAGG) |
Arrival
| Time | 2026-04-21 16:19 |
|---|---|
| Airport | Cape Town International Airport (FACT) |
| Time | Latitude | Longitude | Altitude | Speed | Heading |
|---|---|---|---|---|---|
| 2026-04-21 15:14 | -34.00204 | 22.38124 | 638 ft | 0 kts | 56° |
| 2026-04-21 15:15 | -34.00204 | 22.38123 | 638 ft | 0 kts | 56° |
| 2026-04-21 15:30 | -34.00208 | 22.38116 | 639 ft | 4 kts | 63° |
| 2026-04-21 15:30 | -34.00221 | 22.38089 | 640 ft | 4 kts | 77° |
| 2026-04-21 15:30 | -34.00219 | 22.38061 | 640 ft | 4 kts | 127° |
| 2026-04-21 15:30 | -34.00210 | 22.38049 | 642 ft | 1 kts | 148° |
| 2026-04-21 15:33 | -34.00213 | 22.38051 | 642 ft | 2 kts | 148° |
| 2026-04-21 15:33 | -34.00238 | 22.38070 | 642 ft | 7 kts | 146° |
| 2026-04-21 15:33 | -34.00282 | 22.38122 | 642 ft | 12 kts | 128° |
| 2026-04-21 15:34 | -34.00325 | 22.38227 | 645 ft | 16 kts | 105° |
| 2026-04-21 15:34 | -34.00325 | 22.38385 | 644 ft | 22 kts | 86° |
| 2026-04-21 15:34 | -34.00318 | 22.38583 | 645 ft | 24 kts | 88° |
| 2026-04-21 15:34 | -34.00311 | 22.38776 | 647 ft | 21 kts | 88° |
| 2026-04-21 15:35 | -34.00338 | 22.38893 | 652 ft | 14 kts | 141° |
| 2026-04-21 15:35 | -34.00426 | 22.38917 | 658 ft | 13 kts | 178° |
| 2026-04-21 15:35 | -34.00507 | 22.38920 | 658 ft | 6 kts | 187° |
| 2026-04-21 15:35 | -34.00517 | 22.38905 | 661 ft | 2 kts | 242° |
| 2026-04-21 15:36 | -34.00519 | 22.38891 | 656 ft | 0 kts | 266° |
| 2026-04-21 15:36 | -34.00522 | 22.38818 | 654 ft | 41 kts | 267° |
| 2026-04-21 15:36 | -34.00545 | 22.38105 | 652 ft | 125 kts | 267° |
| 2026-04-21 15:36 | -34.00567 | 22.36860 | 1143 ft | 156 kts | 267° |
| 2026-04-21 15:37 | -34.00550 | 22.35646 | 2554 ft | 139 kts | 268° |
| 2026-04-21 15:37 | -34.00539 | 22.34393 | 3282 ft | 160 kts | 268° |
| 2026-04-21 15:37 | -34.00528 | 22.32961 | 3710 ft | 181 kts | 269° |
| 2026-04-21 15:37 | -34.00517 | 22.31348 | 4062 ft | 203 kts | 270° |
| 2026-04-21 15:38 | -34.00512 | 22.29558 | 4459 ft | 226 kts | 270° |
| 2026-04-21 15:38 | -34.00497 | 22.27605 | 5152 ft | 237 kts | 270° |
| 2026-04-21 15:38 | -34.00483 | 22.25601 | 6086 ft | 241 kts | 270° |
| 2026-04-21 15:38 | -34.00475 | 22.23610 | 7154 ft | 237 kts | 270° |
| 2026-04-21 15:39 | -34.00471 | 22.21578 | 7893 ft | 247 kts | 269° |
| 2026-04-21 15:39 | -34.00469 | 22.19485 | 8734 ft | 251 kts | 269° |
| 2026-04-21 15:39 | -34.00467 | 22.17360 | 9608 ft | 256 kts | 269° |
| 2026-04-21 15:39 | -34.00464 | 22.15215 | 10377 ft | 263 kts | 269° |
| 2026-04-21 15:40 | -34.00459 | 22.12900 | 10637 ft | 289 kts | 269° |
| 2026-04-21 15:40 | -34.00453 | 22.10376 | 10848 ft | 314 kts | 269° |
| 2026-04-21 15:40 | -34.00444 | 22.07654 | 11099 ft | 334 kts | 269° |
| 2026-04-21 15:40 | -34.00434 | 22.04814 | 11715 ft | 342 kts | 269° |
| 2026-04-21 15:41 | -34.00420 | 22.01936 | 12515 ft | 344 kts | 269° |
| 2026-04-21 15:41 | -34.00404 | 21.99040 | 13249 ft | 348 kts | 270° |
| 2026-04-21 15:41 | -34.00386 | 21.96107 | 13961 ft | 352 kts | 269° |
| 2026-04-21 15:41 | -34.00369 | 21.93151 | 14683 ft | 353 kts | 270° |
| 2026-04-21 15:42 | -34.00350 | 21.90178 | 15403 ft | 355 kts | 270° |
| 2026-04-21 15:42 | -34.00330 | 21.87188 | 16089 ft | 358 kts | 270° |
| 2026-04-21 15:42 | -34.00309 | 21.84183 | 16773 ft | 360 kts | 270° |
| 2026-04-21 15:42 | -34.00289 | 21.81149 | 17436 ft | 362 kts | 270° |
| 2026-04-21 15:43 | -34.00268 | 21.78108 | 18101 ft | 366 kts | 270° |
| 2026-04-21 15:43 | -34.00246 | 21.75020 | 18631 ft | 370 kts | 270° |
| 2026-04-21 15:43 | -34.00222 | 21.71916 | 19226 ft | 370 kts | 270° |
| 2026-04-21 15:43 | -34.00198 | 21.68818 | 19906 ft | 370 kts | 270° |
| 2026-04-21 15:44 | -34.00172 | 21.65709 | 20461 ft | 372 kts | 270° |
| 2026-04-21 15:44 | -34.00145 | 21.62580 | 21028 ft | 374 kts | 270° |
| 2026-04-21 15:44 | -34.00118 | 21.59483 | 21559 ft | 375 kts | 270° |
| 2026-04-21 15:44 | -34.00090 | 21.56336 | 22089 ft | 377 kts | 270° |
| 2026-04-21 15:45 | -34.00060 | 21.53174 | 22616 ft | 378 kts | 270° |
| 2026-04-21 15:45 | -34.00030 | 21.49996 | 23136 ft | 379 kts | 270° |
| 2026-04-21 15:45 | -33.99998 | 21.46806 | 23625 ft | 381 kts | 270° |
| 2026-04-21 15:45 | -33.99966 | 21.43603 | 24003 ft | 384 kts | 270° |
| 2026-04-21 15:46 | -33.99933 | 21.40369 | 24357 ft | 386 kts | 271° |
| 2026-04-21 15:46 | -33.99898 | 21.37121 | 24714 ft | 389 kts | 271° |
| 2026-04-21 15:46 | -33.99859 | 21.33859 | 25078 ft | 390 kts | 271° |
| 2026-04-21 15:46 | -33.99819 | 21.30584 | 25461 ft | 391 kts | 271° |
| 2026-04-21 15:47 | -33.99777 | 21.27306 | 25875 ft | 391 kts | 271° |
| 2026-04-21 15:47 | -33.99734 | 21.24026 | 26389 ft | 390 kts | 271° |
| 2026-04-21 15:47 | -33.99691 | 21.20780 | 26942 ft | 387 kts | 271° |
| 2026-04-21 15:47 | -33.99652 | 21.17587 | 27446 ft | 385 kts | 270° |
| 2026-04-21 15:48 | -33.99715 | 21.14354 | 27902 ft | 385 kts | 268° |
| 2026-04-21 15:48 | -33.99855 | 21.11112 | 28060 ft | 389 kts | 267° |
| 2026-04-21 15:48 | -34.00192 | 21.04593 | 28070 ft | 387 kts | 267° |
| 2026-04-21 15:49 | -34.00502 | 20.98264 | 28088 ft | 384 kts | 267° |
| 2026-04-21 15:49 | -34.00792 | 20.91804 | 28088 ft | 387 kts | 267° |
| 2026-04-21 15:50 | -34.01070 | 20.85301 | 28082 ft | 388 kts | 267° |
| 2026-04-21 15:50 | -34.01341 | 20.78850 | 28074 ft | 389 kts | 267° |
| 2026-04-21 15:51 | -34.01609 | 20.72343 | 28086 ft | 389 kts | 267° |
| 2026-04-21 15:51 | -34.01874 | 20.65840 | 28092 ft | 388 kts | 268° |
| 2026-04-21 15:52 | -34.02136 | 20.59337 | 28090 ft | 388 kts | 268° |
| 2026-04-21 15:52 | -34.02395 | 20.52833 | 28087 ft | 388 kts | 268° |
| 2026-04-21 15:53 | -34.02607 | 20.47433 | 28086 ft | 387 kts | 268° |
| 2026-04-21 15:53 | -34.02900 | 20.39847 | 28086 ft | 387 kts | 268° |
| 2026-04-21 15:54 | -34.03148 | 20.33361 | 28092 ft | 387 kts | 268° |
| 2026-04-21 15:54 | -34.03351 | 20.27973 | 28061 ft | 388 kts | 267° |
| 2026-04-21 15:55 | -34.03472 | 20.24736 | 27888 ft | 382 kts | 268° |
| 2026-04-21 15:55 | -34.03589 | 20.21578 | 27621 ft | 374 kts | 268° |
| 2026-04-21 15:55 | -34.03703 | 20.18468 | 27359 ft | 369 kts | 268° |
| 2026-04-21 15:55 | -34.03816 | 20.15378 | 27109 ft | 368 kts | 268° |
| 2026-04-21 15:56 | -34.03928 | 20.12313 | 26686 ft | 365 kts | 268° |
| 2026-04-21 15:56 | -34.04037 | 20.09279 | 26240 ft | 360 kts | 268° |
| 2026-04-21 15:56 | -34.04144 | 20.06284 | 25749 ft | 356 kts | 267° |
| 2026-04-21 15:56 | -34.04250 | 20.03313 | 25270 ft | 353 kts | 267° |
| 2026-04-21 15:57 | -34.04354 | 20.00358 | 24796 ft | 350 kts | 267° |
| 2026-04-21 15:57 | -34.04454 | 19.97506 | 24327 ft | 348 kts | 267° |
| 2026-04-21 15:57 | -34.04555 | 19.94608 | 23860 ft | 346 kts | 267° |
| 2026-04-21 15:57 | -34.04656 | 19.91702 | 23302 ft | 346 kts | 267° |
| 2026-04-21 15:58 | -34.04754 | 19.88804 | 22806 ft | 349 kts | 267° |
| 2026-04-21 15:58 | -34.04857 | 19.85778 | 22286 ft | 374 kts | 267° |
| 2026-04-21 15:58 | -34.04967 | 19.82557 | 21747 ft | 393 kts | 267° |
| 2026-04-21 15:58 | -34.05079 | 19.79276 | 21204 ft | 397 kts | 266° |
| 2026-04-21 15:59 | -34.05189 | 19.75972 | 20639 ft | 392 kts | 266° |
| 2026-04-21 15:59 | -34.05297 | 19.72704 | 20289 ft | 386 kts | 266° |
| 2026-04-21 15:59 | -34.05399 | 19.69475 | 20056 ft | 386 kts | 266° |
| 2026-04-21 15:59 | -34.05508 | 19.66234 | 19871 ft | 387 kts | 266° |
| 2026-04-21 16:00 | -34.05616 | 19.62989 | 19708 ft | 386 kts | 266° |
| 2026-04-21 16:00 | -34.05703 | 19.59761 | 19477 ft | 386 kts | 268° |
| 2026-04-21 16:00 | -34.05553 | 19.56502 | 19025 ft | 391 kts | 272° |
| 2026-04-21 16:00 | -34.05259 | 19.53262 | 18581 ft | 386 kts | 274° |
| 2026-04-21 16:01 | -34.04936 | 19.50066 | 18099 ft | 381 kts | 274° |
| 2026-04-21 16:01 | -34.04624 | 19.46897 | 17617 ft | 380 kts | 274° |
| 2026-04-21 16:01 | -34.04329 | 19.43731 | 17153 ft | 380 kts | 273° |
| 2026-04-21 16:01 | -34.04048 | 19.40572 | 16698 ft | 378 kts | 273° |
| 2026-04-21 16:02 | -34.03775 | 19.37423 | 16257 ft | 377 kts | 273° |
| 2026-04-21 16:02 | -34.03508 | 19.34282 | 15825 ft | 376 kts | 273° |
| 2026-04-21 16:02 | -34.03242 | 19.31154 | 15391 ft | 376 kts | 273° |
| 2026-04-21 16:02 | -34.02975 | 19.28016 | 14945 ft | 375 kts | 273° |
| 2026-04-21 16:03 | -34.02708 | 19.24895 | 14507 ft | 374 kts | 273° |
| 2026-04-21 16:03 | -34.02439 | 19.21780 | 14086 ft | 372 kts | 273° |
| 2026-04-21 16:03 | -34.02170 | 19.18672 | 13456 ft | 374 kts | 274° |
| 2026-04-21 16:03 | -34.01900 | 19.15581 | 12925 ft | 368 kts | 274° |
| 2026-04-21 16:04 | -34.01634 | 19.12580 | 12470 ft | 349 kts | 274° |
| 2026-04-21 16:04 | -34.01387 | 19.09796 | 12112 ft | 330 kts | 274° |
| 2026-04-21 16:04 | -34.01148 | 19.07113 | 11744 ft | 313 kts | 274° |
| 2026-04-21 16:04 | -34.00923 | 19.04580 | 11438 ft | 297 kts | 274° |
| 2026-04-21 16:05 | -34.00709 | 19.02159 | 11135 ft | 283 kts | 274° |
| 2026-04-21 16:05 | -34.00511 | 18.99903 | 10869 ft | 272 kts | 274° |
| 2026-04-21 16:05 | -34.00316 | 18.97685 | 10547 ft | 264 kts | 274° |
| 2026-04-21 16:05 | -34.00123 | 18.95519 | 10243 ft | 256 kts | 274° |
| 2026-04-21 16:06 | -33.99936 | 18.93426 | 10131 ft | 246 kts | 274° |
| 2026-04-21 16:06 | -33.99756 | 18.91400 | 9999 ft | 240 kts | 274° |
| 2026-04-21 16:06 | -33.99577 | 18.89397 | 9724 ft | 240 kts | 274° |
| 2026-04-21 16:06 | -33.99399 | 18.87413 | 9477 ft | 238 kts | 274° |
| 2026-04-21 16:07 | -33.99224 | 18.85457 | 9377 ft | 230 kts | 274° |
| 2026-04-21 16:07 | -33.99052 | 18.83549 | 9275 ft | 226 kts | 274° |
| 2026-04-21 16:07 | -33.98885 | 18.81692 | 9179 ft | 218 kts | 274° |
| 2026-04-21 16:07 | -33.98722 | 18.79898 | 9080 ft | 214 kts | 274° |
| 2026-04-21 16:08 | -33.98396 | 18.76339 | 8888 ft | 217 kts | 277° |
| 2026-04-21 16:08 | -33.97805 | 18.74679 | 8728 ft | 220 kts | 308° |
| 2026-04-21 16:08 | -33.96582 | 18.73526 | 8534 ft | 229 kts | 327° |
| 2026-04-21 16:09 | -33.95127 | 18.72741 | 8311 ft | 230 kts | 333° |
| 2026-04-21 16:09 | -33.93631 | 18.72045 | 8072 ft | 230 kts | 335° |
| 2026-04-21 16:09 | -33.92125 | 18.71387 | 7828 ft | 230 kts | 335° |
| 2026-04-21 16:09 | -33.90616 | 18.70741 | 7577 ft | 230 kts | 335° |
| 2026-04-21 16:10 | -33.89113 | 18.70097 | 7370 ft | 228 kts | 335° |
| 2026-04-21 16:10 | -33.87630 | 18.69466 | 7137 ft | 228 kts | 336° |
| 2026-04-21 16:10 | -33.86117 | 18.68835 | 6916 ft | 227 kts | 336° |
| 2026-04-21 16:10 | -33.84659 | 18.68216 | 6723 ft | 223 kts | 336° |
| 2026-04-21 16:11 | -33.83205 | 18.67603 | 6519 ft | 221 kts | 337° |
| 2026-04-21 16:11 | -33.81758 | 18.67003 | 6335 ft | 219 kts | 336° |
| 2026-04-21 16:11 | -33.80313 | 18.66384 | 6125 ft | 219 kts | 335° |
| 2026-04-21 16:11 | -33.78867 | 18.65774 | 5942 ft | 222 kts | 338° |
| 2026-04-21 16:12 | -33.77392 | 18.65199 | 5762 ft | 222 kts | 338° |
| 2026-04-21 16:12 | -33.75956 | 18.64511 | 5473 ft | 223 kts | 320° |
| 2026-04-21 16:12 | -33.75131 | 18.63025 | 5170 ft | 213 kts | 276° |
| 2026-04-21 16:12 | -33.75053 | 18.61274 | 4954 ft | 210 kts | 271° |
| 2026-04-21 16:13 | -33.74967 | 18.59527 | 4745 ft | 207 kts | 272° |
| 2026-04-21 16:13 | -33.74863 | 18.57830 | 4566 ft | 201 kts | 272° |
| 2026-04-21 16:13 | -33.74838 | 18.56206 | 4329 ft | 194 kts | 256° |
| 2026-04-21 16:13 | -33.75559 | 18.54946 | 4144 ft | 187 kts | 210° |
| 2026-04-21 16:14 | -33.76833 | 18.54699 | 3970 ft | 189 kts | 180° |
| 2026-04-21 16:14 | -33.78147 | 18.54782 | 3711 ft | 189 kts | 179° |
| 2026-04-21 16:14 | -33.79444 | 18.54971 | 3507 ft | 186 kts | 176° |
| 2026-04-21 16:14 | -33.80714 | 18.55212 | 3399 ft | 181 kts | 173° |
| 2026-04-21 16:15 | -33.81931 | 18.55542 | 3182 ft | 178 kts | 170° |
| 2026-04-21 16:15 | -33.83107 | 18.55905 | 2959 ft | 173 kts | 170° |
| 2026-04-21 16:15 | -33.84264 | 18.56271 | 2712 ft | 171 kts | 169° |
| 2026-04-21 16:15 | -33.85409 | 18.56637 | 2463 ft | 169 kts | 170° |
| 2026-04-21 16:16 | -33.86532 | 18.56995 | 2224 ft | 163 kts | 170° |
| 2026-04-21 16:16 | -33.87589 | 18.57333 | 2014 ft | 150 kts | 170° |
| 2026-04-21 16:16 | -33.88559 | 18.57642 | 1789 ft | 141 kts | 170° |
| 2026-04-21 16:16 | -33.89511 | 18.57943 | 1583 ft | 142 kts | 169° |
| 2026-04-21 16:17 | -33.90473 | 18.58250 | 1390 ft | 145 kts | 169° |
| 2026-04-21 16:17 | -33.91441 | 18.58559 | 1174 ft | 145 kts | 169° |
| 2026-04-21 16:17 | -33.92407 | 18.58884 | 984 ft | 145 kts | 169° |
| 2026-04-21 16:17 | -33.93391 | 18.59190 | 730 ft | 144 kts | 172° |
| 2026-04-21 16:18 | -33.94329 | 18.59483 | 580 ft | 140 kts | 169° |
| 2026-04-21 16:18 | -33.95269 | 18.59782 | 348 ft | 141 kts | 169° |
| 2026-04-21 16:18 | -33.96213 | 18.60083 | 167 ft | 139 kts | 169° |
| 2026-04-21 16:18 | -33.97055 | 18.60343 | 155 ft | 108 kts | 165° |
| 2026-04-21 16:19 | -33.97665 | 18.60539 | 152 ft | 76 kts | 165° |
| 2026-04-21 16:19 | -33.98136 | 18.60687 | 153 ft | 61 kts | 165° |
| 2026-04-21 16:19 | -33.98487 | 18.60800 | 152 ft | 38 kts | 165° |
| 2026-04-21 16:19 | -33.98689 | 18.60863 | 153 ft | 15 kts | 166° |
| 2026-04-21 16:20 | -33.98774 | 18.60826 | 154 ft | 14 kts | 241° |
| 2026-04-21 16:20 | -33.98802 | 18.60717 | 153 ft | 12 kts | 255° |
| 2026-04-21 16:20 | -33.98774 | 18.60643 | 153 ft | 11 kts | 337° |
| 2026-04-21 16:20 | -33.98705 | 18.60615 | 153 ft | 10 kts | 341° |
| 2026-04-21 16:21 | -33.98635 | 18.60585 | 153 ft | 12 kts | 340° |
| 2026-04-21 16:21 | -33.98541 | 18.60544 | 153 ft | 17 kts | 340° |
| 2026-04-21 16:21 | -33.98410 | 18.60489 | 153 ft | 22 kts | 340° |
| 2026-04-21 16:21 | -33.98250 | 18.60420 | 153 ft | 27 kts | 340° |
| 2026-04-21 16:22 | -33.98062 | 18.60339 | 153 ft | 29 kts | 340° |
| 2026-04-21 16:22 | -33.97876 | 18.60260 | 153 ft | 27 kts | 340° |
| 2026-04-21 16:22 | -33.97703 | 18.60185 | 153 ft | 26 kts | 340° |
| 2026-04-21 16:22 | -33.97544 | 18.60111 | 153 ft | 23 kts | 335° |
| 2026-04-21 16:23 | -33.97404 | 18.60051 | 153 ft | 20 kts | 344° |
| 2026-04-21 16:23 | -33.97271 | 18.60008 | 153 ft | 19 kts | 346° |
| 2026-04-21 16:23 | -33.97169 | 18.59977 | 153 ft | 12 kts | 345° |
| 2026-04-21 16:23 | -33.97107 | 18.59956 | 153 ft | 6 kts | 328° |
| 2026-04-21 16:24 | -33.97103 | 18.59909 | 153 ft | 6 kts | 257° |
| 2026-04-21 16:24 | -33.97110 | 18.59877 | 153 ft | 2 kts | 255° |
| 2026-04-21 16:24 | -33.97111 | 18.59874 | 153 ft | 0 kts | 254° |